createdAt,value
2023-02-11T00:02:19.665Z,52.04
2023-02-11T00:05:35.196Z,51.42
2023-02-11T00:08:39.542Z,51.20
2023-02-11T00:11:43.740Z,52.03
2023-02-11T00:14:48.937Z,51.68
2023-02-11T00:17:53.288Z,51.05
2023-02-11T00:20:56.892Z,50.95
2023-02-11T00:24:02.439Z,51.03
2023-02-11T00:27:06.387Z,51.67
2023-02-11T00:30:13.646Z,51.24
2023-02-11T00:33:17.488Z,50.97
2023-02-11T00:36:23.659Z,51.01
2023-02-11T00:39:28.056Z,50.66
2023-02-11T00:42:33.282Z,50.66
2023-02-11T00:45:38.385Z,50.38
2023-02-11T00:48:44.254Z,50.63
2023-02-11T00:51:47.926Z,50.46
2023-02-11T00:54:52.505Z,50.44
2023-02-11T00:57:59.681Z,50.51
2023-02-11T01:01:06.031Z,51.73
2023-02-11T01:04:09.782Z,51.16
2023-02-11T01:07:14.450Z,50.85
2023-02-11T01:10:18.169Z,50.92
2023-02-11T01:13:22.501Z,51.23
2023-02-11T01:16:27.574Z,51.43
2023-02-11T01:19:32.401Z,50.44
2023-02-11T01:22:40.012Z,50.62
2023-02-11T01:25:45.619Z,50.55
2023-02-11T01:28:49.802Z,50.55
2023-02-11T01:31:56.480Z,50.43
2023-02-11T01:35:03.444Z,50.29
2023-02-11T01:38:08.836Z,50.16
2023-02-11T01:41:15.118Z,50.75
2023-02-11T01:44:33.652Z,50.50
2023-02-11T01:47:39.140Z,50.19
2023-02-11T01:50:44.439Z,50.21
2023-02-11T01:54:13.912Z,50.45
2023-02-11T01:57:23.510Z,51.22
2023-02-11T02:00:35.997Z,51.17
2023-02-11T02:03:47.708Z,51.10
2023-02-11T02:06:59.317Z,51.05
2023-02-11T02:10:12.233Z,50.50
2023-02-11T02:13:17.529Z,50.49
2023-02-11T02:16:35.058Z,50.25
2023-02-11T02:20:15.169Z,49.74
2023-02-11T02:23:37.316Z,50.14
2023-02-11T02:27:14.441Z,50.61
2023-02-11T02:30:53.144Z,50.34
2023-02-11T02:34:04.319Z,50.21
2023-02-11T02:37:14.448Z,50.57
2023-02-11T02:40:24.408Z,50.21
2023-02-11T02:43:32.861Z,50.25
2023-02-11T02:46:37.782Z,49.93
2023-02-11T02:49:43.741Z,49.70
2023-02-11T02:52:57.861Z,49.63
2023-02-11T02:56:07.911Z,49.89
2023-02-11T02:59:26.727Z,49.76
2023-02-11T03:02:36.348Z,49.52
2023-02-11T03:05:50.730Z,49.49
2023-02-11T03:09:01.037Z,49.89
2023-02-11T03:12:07.856Z,49.67
2023-02-11T03:15:15.169Z,49.54
2023-02-11T03:18:21.695Z,49.16
2023-02-11T03:21:28.457Z,50.03
2023-02-11T03:24:35.836Z,49.61
2023-02-11T03:27:53.445Z,49.64
2023-02-11T03:31:09.283Z,48.93
2023-02-11T03:34:17.382Z,49.15
2023-02-11T03:37:30.084Z,49.15
2023-02-11T03:40:39.012Z,49.15
2023-02-11T03:43:46.954Z,49.32
2023-02-11T03:46:53.577Z,49.33
2023-02-11T03:50:00.822Z,49.12
2023-02-11T03:53:07.321Z,49.05
2023-02-11T03:56:16.268Z,49.24
2023-02-11T03:59:20.808Z,48.97
2023-02-11T04:02:28.730Z,49.22
2023-02-11T04:05:33.025Z,49.11
2023-02-11T04:08:38.324Z,49.39
2023-02-11T04:11:43.257Z,49.11
2023-02-11T04:14:47.607Z,49.01
2023-02-11T04:17:52.098Z,49.04
2023-02-11T04:20:56.198Z,49.57
2023-02-11T04:24:01.893Z,49.46
2023-02-11T04:27:06.174Z,48.83
2023-02-11T04:30:11.423Z,49.30
2023-02-11T04:33:15.292Z,50.19
2023-02-11T04:36:19.743Z,49.48
2023-02-11T04:39:25.319Z,48.89
2023-02-11T04:42:31.065Z,49.20
2023-02-11T04:45:34.762Z,49.16
2023-02-11T04:48:38.925Z,49.37
2023-02-11T04:51:43.213Z,48.87
2023-02-11T04:54:51.664Z,49.40
2023-02-11T04:57:57.866Z,49.40
2023-02-11T05:01:08.288Z,49.20
2023-02-11T05:04:11.883Z,49.06
2023-02-11T05:07:16.199Z,48.63
2023-02-11T05:10:24.396Z,49.23
2023-02-11T05:13:28.371Z,48.99
2023-02-11T05:16:33.410Z,49.38
2023-02-11T05:19:37.411Z,49.07
2023-02-11T05:22:40.976Z,48.93
2023-02-11T05:25:46.757Z,49.29
2023-02-11T05:28:51.901Z,50.17
2023-02-11T05:31:56.436Z,50.55
2023-02-11T05:35:00.029Z,49.77
2023-02-11T05:38:04.080Z,49.33
2023-02-11T05:41:09.982Z,49.46
2023-02-11T05:44:14.892Z,49.37
2023-02-11T05:47:20.670Z,49.56
2023-02-11T05:50:25.098Z,49.19
2023-02-11T05:53:30.593Z,49.16
2023-02-11T05:56:36.613Z,48.72
2023-02-11T05:59:40.551Z,48.84
2023-02-11T06:02:45.123Z,48.88
2023-02-11T06:05:49.078Z,48.78
2023-02-11T06:08:53.733Z,48.83
2023-02-11T06:11:58.837Z,49.47
2023-02-11T06:15:03.233Z,49.75
2023-02-11T06:18:07.471Z,48.89
2023-02-11T06:21:13.121Z,48.39
2023-02-11T06:24:24.668Z,48.30
2023-02-11T06:27:43.516Z,48.75
2023-02-11T06:30:47.061Z,49.05
2023-02-11T06:33:52.010Z,49.09
2023-02-11T06:36:57.752Z,48.97
2023-02-11T06:40:04.433Z,49.33
2023-02-11T06:43:09.374Z,49.99
2023-02-11T06:46:13.738Z,51.28
2023-02-11T06:49:17.298Z,51.70
2023-02-11T06:52:21.283Z,51.77
2023-02-11T06:55:25.974Z,52.65
2023-02-11T06:58:36.901Z,52.04
2023-02-11T07:01:40.683Z,50.94
2023-02-11T07:04:45.985Z,51.13
2023-02-11T07:07:50.397Z,50.34
2023-02-11T07:10:54.533Z,51.82
2023-02-11T07:14:03.792Z,51.21
2023-02-11T07:17:09.420Z,50.63
2023-02-11T07:20:15.330Z,50.78
2023-02-11T07:23:20.345Z,50.84
2023-02-11T07:26:25.902Z,50.84
2023-02-11T07:29:32.125Z,50.97
2023-02-11T07:32:35.710Z,51.23
2023-02-11T07:35:42.320Z,51.98
2023-02-11T07:38:47.348Z,53.02
2023-02-11T07:41:51.498Z,53.13
2023-02-11T07:44:56.905Z,52.64
2023-02-11T07:48:00.893Z,52.04
2023-02-11T07:51:09.314Z,52.31
2023-02-11T07:54:16.106Z,52.50
2023-02-11T07:57:19.695Z,52.32
2023-02-11T08:00:25.777Z,53.41
2023-02-11T08:08:56.579Z,53.07
2023-02-11T08:12:00.463Z,53.03
2023-02-11T08:15:04.321Z,53.01
2023-02-11T08:18:09.699Z,53.09
2023-02-11T08:21:15.364Z,52.97
2023-02-11T08:24:18.836Z,53.26
2023-02-11T08:27:23.625Z,53.29
2023-02-11T08:30:27.709Z,54.13
2023-02-11T08:34:23.173Z,54.16
2023-02-11T08:37:31.413Z,53.87
2023-02-11T08:40:36.869Z,54.09
2023-02-11T08:43:41.974Z,53.53
2023-02-11T08:46:45.687Z,53.82
2023-02-11T08:49:50.514Z,54.31
2023-02-11T08:52:55.817Z,53.33
2023-02-11T08:56:00.172Z,53.63
2023-02-11T08:59:05.139Z,53.30
2023-02-11T09:02:14.386Z,53.98
2023-02-11T09:05:18.298Z,53.71
2023-02-11T09:08:24.688Z,53.62
2023-02-11T09:11:31.707Z,53.98
2023-02-11T09:14:35.636Z,53.89
2023-02-11T09:17:39.166Z,54.58
2023-02-11T09:20:43.977Z,54.42
2023-02-11T09:23:50.128Z,54.21
2023-02-11T09:26:54.316Z,53.69
2023-02-11T09:29:59.163Z,54.03
2023-02-11T09:33:03.861Z,53.48
2023-02-11T09:36:08.697Z,53.34
2023-02-11T09:39:17.175Z,54.21
2023-02-11T09:42:41.735Z,54.33
2023-02-11T09:45:46.332Z,54.90
2023-02-11T09:48:52.571Z,53.88
2023-02-11T09:52:03.525Z,52.39
2023-02-11T09:55:20.159Z,52.22
2023-02-11T09:58:28.360Z,52.40
2023-02-11T10:01:41.893Z,52.36
2023-02-11T10:05:03.574Z,52.38
2023-02-11T10:08:17.835Z,52.82
2023-02-11T10:11:32.869Z,51.52
2023-02-11T10:14:54.715Z,51.33
2023-02-11T10:18:12.106Z,51.64
2023-02-11T10:21:26.741Z,52.14
2023-02-11T10:24:31.493Z,51.18
2023-02-11T10:27:37.702Z,50.50
2023-02-11T10:30:46.867Z,50.60
2023-02-11T10:33:55.698Z,50.69
2023-02-11T10:37:00.533Z,50.18
2023-02-11T10:40:04.206Z,50.53
2023-02-11T10:43:17.648Z,49.19
2023-02-11T10:46:26.880Z,48.95
2023-02-11T10:49:38.378Z,48.68
2023-02-11T10:52:42.285Z,49.35
2023-02-11T10:55:53.965Z,49.44
2023-02-11T10:59:03.599Z,49.56
2023-02-11T11:02:24.020Z,49.70
2023-02-11T11:05:33.197Z,49.80
2023-02-11T11:08:43.527Z,49.84
2023-02-11T11:11:53.959Z,49.62
2023-02-11T11:15:01.862Z,49.66
2023-02-11T11:18:23.534Z,49.47
2023-02-11T11:21:34.824Z,48.70
2023-02-11T11:24:54.296Z,48.55
2023-02-11T11:28:02.451Z,48.52
2023-02-11T11:31:16.254Z,48.50
2023-02-11T11:34:28.518Z,48.76
2023-02-11T11:37:34.570Z,47.17
2023-02-11T11:40:39.731Z,47.65
2023-02-11T11:43:56.556Z,48.84
2023-02-11T11:47:26.517Z,48.15
2023-02-11T11:50:36.926Z,47.64
2023-02-11T11:53:49.929Z,48.12
2023-02-11T11:57:01.870Z,48.36
2023-02-11T12:00:07.227Z,47.78
2023-02-11T12:03:39.950Z,48.23
2023-02-11T12:06:57.851Z,47.49
2023-02-11T12:10:24.999Z,46.62
2023-02-11T12:13:44.300Z,46.77
2023-02-11T12:16:58.505Z,47.30
2023-02-11T12:20:23.833Z,46.89
2023-02-11T12:23:41.914Z,47.02
2023-02-11T12:26:51.078Z,47.00
2023-02-11T12:30:09.415Z,46.96
2023-02-11T12:33:24.709Z,46.79
2023-02-11T12:36:42.141Z,46.14
2023-02-11T12:39:52.398Z,45.31
2023-02-11T12:43:20.957Z,45.11
2023-02-11T12:46:40.389Z,45.50
2023-02-11T12:50:09.384Z,45.20
2023-02-11T12:53:40.777Z,45.20
2023-02-11T12:56:50.823Z,44.56
2023-02-11T13:00:04.477Z,44.98
2023-02-11T13:03:14.177Z,44.56
2023-02-11T13:06:24.019Z,43.82
2023-02-11T13:09:39.774Z,45.03
2023-02-11T13:13:04.152Z,45.13
2023-02-11T13:16:21.305Z,45.18
2023-02-11T13:19:34.580Z,44.65
2023-02-11T13:22:45.638Z,45.04
2023-02-11T13:25:58.708Z,44.74
2023-02-11T13:29:18.889Z,45.26
2023-02-11T13:32:23.444Z,44.85
2023-02-11T13:35:32.058Z,43.49
2023-02-11T13:38:36.632Z,44.16
2023-02-11T13:41:45.267Z,43.91
2023-02-11T13:44:50.229Z,43.83
2023-02-11T13:47:59.437Z,43.75
2023-02-11T13:51:06.749Z,43.51
2023-02-11T13:54:23.527Z,43.95
2023-02-11T13:57:36.574Z,44.57
2023-02-11T14:00:49.106Z,43.91
2023-02-11T14:04:40.443Z,43.71
2023-02-11T14:08:36.344Z,42.53
2023-02-11T14:11:51.080Z,43.42
2023-02-11T14:15:33.133Z,43.08
2023-02-11T14:18:55.795Z,43.26
2023-02-11T14:22:03.857Z,42.96
2023-02-11T14:25:20.505Z,42.67
2023-02-11T14:28:35.059Z,43.68
2023-02-11T14:31:45.358Z,43.95
2023-02-11T14:35:01.144Z,44.16
2023-02-11T14:38:14.009Z,43.18
2023-02-11T14:41:23.943Z,43.62
2023-02-11T14:44:31.468Z,43.99
2023-02-11T14:47:44.504Z,43.62
2023-02-11T14:50:51.837Z,44.48
2023-02-11T14:54:02.520Z,44.60
2023-02-11T14:57:15.857Z,44.69
2023-02-11T15:00:24.063Z,44.84
2023-02-11T15:03:34.304Z,44.83
2023-02-11T15:06:41.498Z,44.86
2023-02-11T15:09:49.101Z,44.71
2023-02-11T15:12:54.889Z,45.12
2023-02-11T15:16:10.139Z,44.52
2023-02-11T15:19:25.657Z,44.82
2023-02-11T15:22:33.196Z,43.75
2023-02-11T15:25:44.344Z,44.53
2023-02-11T15:28:52.606Z,44.24
2023-02-11T15:32:15.403Z,43.60
2023-02-11T15:35:21.617Z,44.32
2023-02-11T15:38:26.244Z,44.04
2023-02-11T15:41:37.141Z,43.81
2023-02-11T15:44:41.588Z,44.26
2023-02-11T15:47:52.193Z,44.39
2023-02-11T15:51:03.669Z,44.61
2023-02-11T15:54:17.898Z,45.04
2023-02-11T15:57:22.808Z,44.96
2023-02-11T16:00:33.956Z,45.32
2023-02-11T16:03:40.822Z,45.42
2023-02-11T16:06:48.611Z,45.85
2023-02-11T16:09:58.939Z,46.23
2023-02-11T16:13:20.403Z,46.46
2023-02-11T16:16:32.073Z,47.09
2023-02-11T16:19:38.019Z,46.98
2023-02-11T16:22:48.188Z,47.33
2023-02-11T16:26:00.079Z,47.84
2023-02-11T16:29:06.873Z,48.03
2023-02-11T16:32:16.782Z,48.09
2023-02-11T16:35:22.556Z,48.67
2023-02-11T16:38:27.823Z,48.72
2023-02-11T16:41:31.304Z,49.48
2023-02-11T16:44:35.660Z,49.43
2023-02-11T16:47:42.132Z,49.60
2023-02-11T16:50:50.665Z,50.57
2023-02-11T16:53:57.581Z,50.33
2023-02-11T16:57:03.840Z,50.81
2023-02-11T17:00:08.958Z,51.54
2023-02-11T17:03:19.249Z,51.33
2023-02-11T17:06:22.857Z,51.16
2023-02-11T17:09:31.234Z,51.16
2023-02-11T17:12:36.485Z,50.96
2023-02-11T17:15:40.668Z,51.46
2023-02-11T17:18:45.576Z,52.13
2023-02-11T17:21:52.775Z,51.58
2023-02-11T17:24:58.834Z,52.60
2023-02-11T17:28:03.107Z,52.39
2023-02-11T17:31:09.675Z,52.98
2023-02-11T17:34:14.250Z,51.92
2023-02-11T17:37:17.768Z,52.87
2023-02-11T17:40:23.605Z,52.83
2023-02-11T17:43:27.269Z,53.08
2023-02-11T17:46:32.278Z,52.99
2023-02-11T17:49:36.362Z,53.54
2023-02-11T17:52:41.040Z,53.39
2023-02-11T17:55:46.008Z,53.55
2023-02-11T17:58:50.057Z,53.74
2023-02-11T18:01:53.523Z,53.81
2023-02-11T18:04:58.951Z,53.33
2023-02-11T18:08:05.128Z,54.00
2023-02-11T18:11:12.515Z,53.75
2023-02-11T18:14:16.135Z,53.13
2023-02-11T18:17:21.916Z,53.83
2023-02-11T18:20:25.696Z,53.69
2023-02-11T18:23:29.571Z,54.32
2023-02-11T18:26:34.843Z,54.91
2023-02-11T18:29:39.118Z,54.19
2023-02-11T18:32:42.766Z,53.88
2023-02-11T18:35:49.097Z,53.32
2023-02-11T18:38:54.384Z,53.64
2023-02-11T18:42:00.142Z,53.57
2023-02-11T18:45:04.075Z,53.07
2023-02-11T18:48:07.761Z,53.43
2023-02-11T18:51:15.877Z,53.41
2023-02-11T18:54:20.165Z,54.00
2023-02-11T18:57:25.001Z,54.32
2023-02-11T19:00:31.227Z,54.05
2023-02-11T19:03:35.151Z,53.69
2023-02-11T19:06:40.100Z,53.84
2023-02-11T19:09:46.489Z,53.39
2023-02-11T19:12:56.286Z,53.94
2023-02-11T19:16:00.384Z,54.04
2023-02-11T19:19:06.922Z,54.22
2023-02-11T19:22:11.041Z,54.23
2023-02-11T19:25:15.369Z,54.20
2023-02-11T19:28:21.010Z,54.80
2023-02-11T19:31:26.128Z,54.98
2023-02-11T19:34:30.331Z,54.35
2023-02-11T19:37:36.724Z,54.69
2023-02-11T19:40:40.636Z,56.09
2023-02-11T19:43:47.141Z,57.23
2023-02-11T19:46:53.396Z,56.22
2023-02-11T19:49:57.268Z,55.83
2023-02-11T19:53:45.942Z,56.24
2023-02-11T19:56:51.799Z,56.36
2023-02-11T19:59:57.031Z,55.67
2023-02-11T20:03:02.057Z,55.84
2023-02-11T20:06:09.562Z,55.12
2023-02-11T20:09:16.282Z,54.86
2023-02-11T20:12:19.761Z,55.36
2023-02-11T20:15:30.943Z,55.81
2023-02-11T20:18:35.073Z,55.21
2023-02-11T20:21:40.125Z,56.50
2023-02-11T20:24:46.835Z,55.46
2023-02-11T20:27:51.113Z,55.73
2023-02-11T20:31:01.155Z,55.57
2023-02-11T20:34:06.649Z,55.20
2023-02-11T20:37:10.678Z,55.53
2023-02-11T20:40:14.945Z,54.62
2023-02-11T20:43:20.659Z,55.86
2023-02-11T20:46:28.465Z,55.67
2023-02-11T20:49:32.839Z,56.21
2023-02-11T20:52:38.009Z,55.65
2023-02-11T20:55:43.225Z,55.30
2023-02-11T20:58:48.252Z,55.14
2023-02-11T21:01:55.999Z,55.13
2023-02-11T21:05:01.978Z,54.87
2023-02-11T21:08:06.966Z,55.86
2023-02-11T21:11:12.287Z,55.53
2023-02-11T21:14:18.505Z,55.48
2023-02-11T21:17:26.518Z,55.08
2023-02-11T21:20:31.031Z,54.75
2023-02-11T21:23:36.248Z,56.39
2023-02-11T21:26:41.206Z,55.15
2023-02-11T21:29:54.181Z,55.42
2023-02-11T21:33:00.785Z,54.89
2023-02-11T21:36:08.019Z,55.16
2023-02-11T21:39:13.689Z,55.04
2023-02-11T21:42:19.366Z,55.08
2023-02-11T21:45:24.942Z,55.50
2023-02-11T21:48:31.519Z,54.77
2023-02-11T21:51:35.161Z,54.89
2023-02-11T21:54:39.398Z,54.68
2023-02-11T21:57:42.885Z,55.51
2023-02-11T22:00:47.850Z,55.59
2023-02-11T22:03:53.464Z,55.06
2023-02-11T22:06:57.763Z,55.78
2023-02-11T22:10:11.793Z,57.03
2023-02-11T22:13:16.987Z,56.09
2023-02-11T22:16:21.428Z,56.43
2023-02-11T22:19:27.579Z,57.03
2023-02-11T22:22:31.760Z,56.51
2023-02-11T22:25:37.902Z,55.87
2023-02-11T22:28:41.870Z,55.56
2023-02-11T22:31:45.735Z,55.27
2023-02-11T22:34:53.192Z,55.27
2023-02-11T22:37:57.353Z,55.51
2023-02-11T22:41:02.226Z,55.38
2023-02-11T22:44:06.313Z,54.86
2023-02-11T22:47:09.860Z,55.07
2023-02-11T22:50:15.551Z,55.04
2023-02-11T22:53:19.359Z,55.25
2023-02-11T22:56:24.459Z,55.13
2023-02-11T22:59:27.908Z,55.18
2023-02-11T23:02:32.901Z,55.38
2023-02-11T23:05:40.766Z,55.25
2023-02-11T23:08:45.369Z,55.28
2023-02-11T23:11:50.251Z,55.07
2023-02-11T23:14:54.069Z,54.86
2023-02-11T23:17:57.874Z,54.66
2023-02-11T23:21:12.393Z,54.53
2023-02-11T23:24:16.424Z,54.77
2023-02-11T23:27:22.756Z,54.93
2023-02-11T23:30:28.009Z,54.61
2023-02-11T23:33:32.724Z,55.50
2023-02-11T23:36:40.012Z,55.94
2023-02-11T23:39:44.441Z,55.37
2023-02-11T23:42:49.190Z,55.45
2023-02-11T23:45:53.540Z,54.75
2023-02-11T23:48:57.500Z,55.44
2023-02-11T23:52:05.628Z,54.92
2023-02-11T23:55:09.413Z,55.10
2023-02-11T23:58:18.693Z,55.21
